sensor_id;sensor_type;location;lat;lon;timestamp;temperature;humidity
24412;DHT22;12544;46.760;15.942;2022-12-15T00:02:24;-1.00;99.90
24412;DHT22;12544;46.760;15.942;2022-12-15T00:05:08;-1.00;99.90
24412;DHT22;12544;46.760;15.942;2022-12-15T00:07:53;-1.00;99.90
24412;DHT22;12544;46.760;15.942;2022-12-15T00:10:37;-1.00;99.90
24412;DHT22;12544;46.760;15.942;2022-12-15T00:13:21;-0.90;99.90
24412;DHT22;12544;46.760;15.942;2022-12-15T00:16:06;-0.90;99.90
24412;DHT22;12544;46.760;15.942;2022-12-15T00:18:50;-0.90;99.90
24412;DHT22;12544;46.760;15.942;2022-12-15T00:21:34;-0.90;99.90
24412;DHT22;12544;46.760;15.942;2022-12-15T00:24:18;-0.90;99.90
24412;DHT22;12544;46.760;15.942;2022-12-15T00:27:03;-0.90;99.90
24412;DHT22;12544;46.760;15.942;2022-12-15T00:29:47;-0.90;99.90
24412;DHT22;12544;46.760;15.942;2022-12-15T00:32:31;-0.80;99.90
24412;DHT22;12544;46.760;15.942;2022-12-15T00:35:16;-0.80;99.90
24412;DHT22;12544;46.760;15.942;2022-12-15T00:38:12;-0.80;99.90
24412;DHT22;12544;46.760;15.942;2022-12-15T00:40:59;-0.70;99.90
24412;DHT22;12544;46.760;15.942;2022-12-15T00:43:28;-0.80;99.90
24412;DHT22;12544;46.760;15.942;2022-12-15T00:45:54;-0.90;99.90
24412;DHT22;12544;46.760;15.942;2022-12-15T00:48:46;-0.90;99.90
24412;DHT22;12544;46.760;15.942;2022-12-15T00:51:13;-1.00;99.90
24412;DHT22;12544;46.760;15.942;2022-12-15T00:53:39;-0.40;99.90
24412;DHT22;12544;46.760;15.942;2022-12-15T00:56:24;-0.70;99.90
24412;DHT22;12544;46.760;15.942;2022-12-15T00:59:08;-1.00;99.90
24412;DHT22;12544;46.760;15.942;2022-12-15T01:01:53;-1.00;99.90
24412;DHT22;12544;46.760;15.942;2022-12-15T01:04:37;-0.80;99.90
24412;DHT22;12544;46.760;15.942;2022-12-15T01:07:21;-0.90;99.90
24412;DHT22;12544;46.760;15.942;2022-12-15T01:10:05;-0.90;99.90
24412;DHT22;12544;46.760;15.942;2022-12-15T01:12:50;-0.90;99.90
24412;DHT22;12544;46.760;15.942;2022-12-15T01:15:37;-0.90;99.90
24412;DHT22;12544;46.760;15.942;2022-12-15T01:18:22;-0.90;99.90
24412;DHT22;12544;46.760;15.942;2022-12-15T01:21:08;-0.80;99.90
24412;DHT22;12544;46.760;15.942;2022-12-15T01:23:34;-0.90;99.90
24412;DHT22;12544;46.760;15.942;2022-12-15T01:26:00;-0.90;99.90
24412;DHT22;12544;46.760;15.942;2022-12-15T01:28:26;-0.90;99.90
24412;DHT22;12544;46.760;15.942;2022-12-15T01:30:52;-0.50;99.90
24412;DHT22;12544;46.760;15.942;2022-12-15T01:33:30;-0.90;99.90
24412;DHT22;12544;46.760;15.942;2022-12-15T01:35:57;-0.70;99.90
24412;DHT22;12544;46.760;15.942;2022-12-15T01:38:23;0.10;99.90
24412;DHT22;12544;46.760;15.942;2022-12-15T01:40:51;-1.00;99.90
24412;DHT22;12544;46.760;15.942;2022-12-15T01:43:23;-1.00;99.90
24412;DHT22;12544;46.760;15.942;2022-12-15T01:46:08;-1.00;99.90
24412;DHT22;12544;46.760;15.942;2022-12-15T01:51:46;-1.10;99.90
24412;DHT22;12544;46.760;15.942;2022-12-15T01:54:09;-1.10;99.90
24412;DHT22;12544;46.760;15.942;2022-12-15T01:56:40;-1.00;99.90
24412;DHT22;12544;46.760;15.942;2022-12-15T01:59:10;-1.10;99.90
24412;DHT22;12544;46.760;15.942;2022-12-15T02:01:36;-1.00;99.90
24412;DHT22;12544;46.760;15.942;2022-12-15T02:04:02;-1.00;99.90
24412;DHT22;12544;46.760;15.942;2022-12-15T02:06:28;-0.70;99.90
24412;DHT22;12544;46.760;15.942;2022-12-15T02:08:56;-0.90;99.90
24412;DHT22;12544;46.760;15.942;2022-12-15T02:23:18;-1.00;99.90
24412;DHT22;12544;46.760;15.942;2022-12-15T02:34:48;-0.90;99.90
24412;DHT22;12544;46.760;15.942;2022-12-15T02:37:33;-0.90;99.90
24412;DHT22;12544;46.760;15.942;2022-12-15T02:40:00;-0.80;99.90
24412;DHT22;12544;46.760;15.942;2022-12-15T02:42:27;-0.90;99.90
24412;DHT22;12544;46.760;15.942;2022-12-15T02:45:25;-0.90;99.90
24412;DHT22;12544;46.760;15.942;2022-12-15T02:48:03;-0.90;99.90
24412;DHT22;12544;46.760;15.942;2022-12-15T02:56:25;-0.90;99.90
24412;DHT22;12544;46.760;15.942;2022-12-15T03:01:50;-0.90;99.90
24412;DHT22;12544;46.760;15.942;2022-12-15T03:04:18;-0.90;99.90
24412;DHT22;12544;46.760;15.942;2022-12-15T03:06:44;-0.90;99.90
24412;DHT22;12544;46.760;15.942;2022-12-15T03:09:14;-0.60;99.90
24412;DHT22;12544;46.760;15.942;2022-12-15T03:11:40;-0.70;99.90
24412;DHT22;12544;46.760;15.942;2022-12-15T03:14:05;-0.90;99.90
24412;DHT22;12544;46.760;15.942;2022-12-15T03:16:31;-0.90;99.90
24412;DHT22;12544;46.760;15.942;2022-12-15T03:18:58;-0.90;99.90
24412;DHT22;12544;46.760;15.942;2022-12-15T03:21:24;-1.00;99.90
24412;DHT22;12544;46.760;15.942;2022-12-15T03:23:49;-1.00;99.90
24412;DHT22;12544;46.760;15.942;2022-12-15T03:26:15;-1.00;99.90
24412;DHT22;12544;46.760;15.942;2022-12-15T03:28:40;-1.00;99.90
24412;DHT22;12544;46.760;15.942;2022-12-15T03:31:07;-0.90;99.90
24412;DHT22;12544;46.760;15.942;2022-12-15T03:33:32;-0.90;99.90
24412;DHT22;12544;46.760;15.942;2022-12-15T03:35:58;-0.90;99.90
24412;DHT22;12544;46.760;15.942;2022-12-15T03:38:24;-0.90;99.90
24412;DHT22;12544;46.760;15.942;2022-12-15T03:40:50;-0.80;99.90
24412;DHT22;12544;46.760;15.942;2022-12-15T03:43:15;-0.90;99.90
24412;DHT22;12544;46.760;15.942;2022-12-15T03:45:41;-0.90;99.90
24412;DHT22;12544;46.760;15.942;2022-12-15T03:48:07;-0.80;99.90
24412;DHT22;12544;46.760;15.942;2022-12-15T03:50:32;-0.80;99.90
24412;DHT22;12544;46.760;15.942;2022-12-15T03:53:00;-0.90;99.90
24412;DHT22;12544;46.760;15.942;2022-12-15T03:55:27;-0.80;99.90
24412;DHT22;12544;46.760;15.942;2022-12-15T03:58:03;-0.90;99.90
24412;DHT22;12544;46.760;15.942;2022-12-15T04:00:29;-1.00;99.90
24412;DHT22;12544;46.760;15.942;2022-12-15T04:02:55;-1.00;99.90
24412;DHT22;12544;46.760;15.942;2022-12-15T04:05:32;-1.10;99.90
24412;DHT22;12544;46.760;15.942;2022-12-15T04:07:59;-1.10;99.90
24412;DHT22;12544;46.760;15.942;2022-12-15T04:10:27;-1.10;99.90
24412;DHT22;12544;46.760;15.942;2022-12-15T04:13:04;-1.20;99.90
24412;DHT22;12544;46.760;15.942;2022-12-15T04:15:30;-1.20;99.90
24412;DHT22;12544;46.760;15.942;2022-12-15T04:17:56;-1.20;99.90
24412;DHT22;12544;46.760;15.942;2022-12-15T04:20:23;-1.30;99.90
24412;DHT22;12544;46.760;15.942;2022-12-15T04:22:49;-1.30;99.90
24412;DHT22;12544;46.760;15.942;2022-12-15T04:25:20;-1.40;99.90
24412;DHT22;12544;46.760;15.942;2022-12-15T04:28:06;-1.50;99.90
24412;DHT22;12544;46.760;15.942;2022-12-15T04:30:59;-1.60;99.90
24412;DHT22;12544;46.760;15.942;2022-12-15T04:33:47;-1.50;99.90
24412;DHT22;12544;46.760;15.942;2022-12-15T04:36:32;-1.40;99.90
24412;DHT22;12544;46.760;15.942;2022-12-15T04:39:17;-1.30;99.90
24412;DHT22;12544;46.760;15.942;2022-12-15T04:42:01;-1.30;99.90
24412;DHT22;12544;46.760;15.942;2022-12-15T04:44:46;-1.20;99.90
24412;DHT22;12544;46.760;15.942;2022-12-15T04:47:33;-1.20;99.90
24412;DHT22;12544;46.760;15.942;2022-12-15T04:50:17;-1.20;99.90
24412;DHT22;12544;46.760;15.942;2022-12-15T04:53:15;-1.20;99.90
24412;DHT22;12544;46.760;15.942;2022-12-15T04:56:00;-1.10;99.90
24412;DHT22;12544;46.760;15.942;2022-12-15T04:58:45;-1.30;99.90
24412;DHT22;12544;46.760;15.942;2022-12-15T05:01:30;-1.30;99.90
24412;DHT22;12544;46.760;15.942;2022-12-15T05:04:14;-1.40;99.90
24412;DHT22;12544;46.760;15.942;2022-12-15T05:06:58;-1.50;99.90
24412;DHT22;12544;46.760;15.942;2022-12-15T05:09:42;-1.60;99.90
24412;DHT22;12544;46.760;15.942;2022-12-15T05:12:26;-1.60;99.90
24412;DHT22;12544;46.760;15.942;2022-12-15T05:15:11;-1.50;99.90
24412;DHT22;12544;46.760;15.942;2022-12-15T05:17:55;-1.60;99.90
24412;DHT22;12544;46.760;15.942;2022-12-15T05:20:39;-1.50;99.90
24412;DHT22;12544;46.760;15.942;2022-12-15T05:23:23;-1.50;99.90
24412;DHT22;12544;46.760;15.942;2022-12-15T05:26:07;-1.50;99.90
24412;DHT22;12544;46.760;15.942;2022-12-15T05:28:51;-1.50;99.90
24412;DHT22;12544;46.760;15.942;2022-12-15T05:31:35;-1.50;99.90
24412;DHT22;12544;46.760;15.942;2022-12-15T05:34:21;-1.50;99.90
24412;DHT22;12544;46.760;15.942;2022-12-15T05:36:48;-1.50;99.90
24412;DHT22;12544;46.760;15.942;2022-12-15T05:39:13;-1.60;99.90
24412;DHT22;12544;46.760;15.942;2022-12-15T05:41:39;-1.60;99.90
24412;DHT22;12544;46.760;15.942;2022-12-15T05:44:05;-1.70;99.90
24412;DHT22;12544;46.760;15.942;2022-12-15T05:46:31;-1.70;99.90
24412;DHT22;12544;46.760;15.942;2022-12-15T05:48:56;-1.70;99.90
24412;DHT22;12544;46.760;15.942;2022-12-15T05:51:22;-1.80;99.90
24412;DHT22;12544;46.760;15.942;2022-12-15T05:53:47;-1.80;99.90
24412;DHT22;12544;46.760;15.942;2022-12-15T05:56:13;-2.00;99.90
24412;DHT22;12544;46.760;15.942;2022-12-15T05:58:40;-1.50;99.90
24412;DHT22;12544;46.760;15.942;2022-12-15T06:01:13;-2.10;99.90
24412;DHT22;12544;46.760;15.942;2022-12-15T06:03:39;-2.10;99.90
24412;DHT22;12544;46.760;15.942;2022-12-15T06:06:06;-2.00;99.90
24412;DHT22;12544;46.760;15.942;2022-12-15T06:08:34;-2.00;99.90
24412;DHT22;12544;46.760;15.942;2022-12-15T06:11:00;-2.00;99.90
24412;DHT22;12544;46.760;15.942;2022-12-15T06:13:27;-2.00;99.90
24412;DHT22;12544;46.760;15.942;2022-12-15T06:16:02;-2.00;99.90
24412;DHT22;12544;46.760;15.942;2022-12-15T06:18:30;-1.90;99.90
24412;DHT22;12544;46.760;15.942;2022-12-15T06:21:04;-1.90;99.90
24412;DHT22;12544;46.760;15.942;2022-12-15T06:23:31;-1.90;99.90
24412;DHT22;12544;46.760;15.942;2022-12-15T06:25:58;-1.90;99.90
24412;DHT22;12544;46.760;15.942;2022-12-15T06:28:24;-2.00;99.90
24412;DHT22;12544;46.760;15.942;2022-12-15T06:30:51;-2.00;99.90
24412;DHT22;12544;46.760;15.942;2022-12-15T06:33:18;-2.10;99.90
24412;DHT22;12544;46.760;15.942;2022-12-15T06:35:43;-2.10;99.90
24412;DHT22;12544;46.760;15.942;2022-12-15T06:38:09;-2.10;99.90
24412;DHT22;12544;46.760;15.942;2022-12-15T06:40:35;-2.10;99.90
24412;DHT22;12544;46.760;15.942;2022-12-15T06:43:00;-2.10;99.90
24412;DHT22;12544;46.760;15.942;2022-12-15T06:45:26;-2.00;99.90
24412;DHT22;12544;46.760;15.942;2022-12-15T06:47:52;-2.00;99.90
24412;DHT22;12544;46.760;15.942;2022-12-15T06:50:17;-2.10;99.90
24412;DHT22;12544;46.760;15.942;2022-12-15T06:52:44;-2.10;99.90
24412;DHT22;12544;46.760;15.942;2022-12-15T06:55:09;-2.10;99.90
24412;DHT22;12544;46.760;15.942;2022-12-15T06:57:35;-2.10;99.90
24412;DHT22;12544;46.760;15.942;2022-12-15T07:00:02;-2.10;99.90
24412;DHT22;12544;46.760;15.942;2022-12-15T07:02:27;-2.10;99.90
24412;DHT22;12544;46.760;15.942;2022-12-15T07:04:54;-2.20;99.90
24412;DHT22;12544;46.760;15.942;2022-12-15T07:07:20;-2.20;99.90
24412;DHT22;12544;46.760;15.942;2022-12-15T07:09:45;-2.20;99.90
24412;DHT22;12544;46.760;15.942;2022-12-15T07:12:11;-2.20;99.90
24412;DHT22;12544;46.760;15.942;2022-12-15T07:14:37;-2.20;99.90
24412;DHT22;12544;46.760;15.942;2022-12-15T07:17:03;-2.10;99.90
24412;DHT22;12544;46.760;15.942;2022-12-15T07:19:29;-2.10;99.90
24412;DHT22;12544;46.760;15.942;2022-12-15T07:21:55;-2.00;99.90
24412;DHT22;12544;46.760;15.942;2022-12-15T07:24:22;-2.00;99.90
24412;DHT22;12544;46.760;15.942;2022-12-15T07:26:48;-2.00;99.90
24412;DHT22;12544;46.760;15.942;2022-12-15T07:29:13;-2.00;99.90
24412;DHT22;12544;46.760;15.942;2022-12-15T07:31:39;-2.10;99.90
24412;DHT22;12544;46.760;15.942;2022-12-15T07:34:05;-2.00;99.90
24412;DHT22;12544;46.760;15.942;2022-12-15T07:36:32;-2.10;99.90
24412;DHT22;12544;46.760;15.942;2022-12-15T07:38:59;-2.10;99.90
24412;DHT22;12544;46.760;15.942;2022-12-15T07:41:26;-2.00;99.90
24412;DHT22;12544;46.760;15.942;2022-12-15T07:43:52;-1.90;99.90
24412;DHT22;12544;46.760;15.942;2022-12-15T07:46:17;-2.00;99.90
24412;DHT22;12544;46.760;15.942;2022-12-15T07:48:44;-2.00;99.90
24412;DHT22;12544;46.760;15.942;2022-12-15T07:51:10;-1.90;99.90
24412;DHT22;12544;46.760;15.942;2022-12-15T07:53:39;-2.00;99.90
24412;DHT22;12544;46.760;15.942;2022-12-15T07:56:05;-1.60;99.90
24412;DHT22;12544;46.760;15.942;2022-12-15T07:58:30;-1.80;99.90
24412;DHT22;12544;46.760;15.942;2022-12-15T08:01:01;-1.70;99.90
24412;DHT22;12544;46.760;15.942;2022-12-15T08:03:28;-1.60;99.90
24412;DHT22;12544;46.760;15.942;2022-12-15T08:05:54;-1.50;99.90
24412;DHT22;12544;46.760;15.942;2022-12-15T08:08:21;-1.50;99.90
24412;DHT22;12544;46.760;15.942;2022-12-15T08:10:47;-1.30;99.90
24412;DHT22;12544;46.760;15.942;2022-12-15T08:13:39;-0.80;99.90
24412;DHT22;12544;46.760;15.942;2022-12-15T08:16:05;-1.10;99.90
24412;DHT22;12544;46.760;15.942;2022-12-15T08:18:30;-1.10;99.90
24412;DHT22;12544;46.760;15.942;2022-12-15T08:21:05;-1.10;99.90
24412;DHT22;12544;46.760;15.942;2022-12-15T08:23:31;-1.00;99.90
24412;DHT22;12544;46.760;15.942;2022-12-15T08:26:09;-0.90;99.90
24412;DHT22;12544;46.760;15.942;2022-12-15T08:28:37;-0.80;99.90
24412;DHT22;12544;46.760;15.942;2022-12-15T08:31:11;-0.70;99.90
24412;DHT22;12544;46.760;15.942;2022-12-15T08:33:37;-0.70;99.90
24412;DHT22;12544;46.760;15.942;2022-12-15T08:36:07;-0.70;99.90
24412;DHT22;12544;46.760;15.942;2022-12-15T08:38:34;-0.60;99.90
24412;DHT22;12544;46.760;15.942;2022-12-15T08:41:15;-0.50;99.90
24412;DHT22;12544;46.760;15.942;2022-12-15T08:43:42;-0.50;99.90
24412;DHT22;12544;46.760;15.942;2022-12-15T08:46:09;-0.40;99.90
24412;DHT22;12544;46.760;15.942;2022-12-15T08:48:35;-0.40;99.90
24412;DHT22;12544;46.760;15.942;2022-12-15T08:51:00;-0.10;99.90
24412;DHT22;12544;46.760;15.942;2022-12-15T08:53:26;-0.10;99.90
24412;DHT22;12544;46.760;15.942;2022-12-15T08:55:52;-0.10;99.90
24412;DHT22;12544;46.760;15.942;2022-12-15T08:58:18;0.20;99.90
24412;DHT22;12544;46.760;15.942;2022-12-15T09:00:45;0.10;99.90
24412;DHT22;12544;46.760;15.942;2022-12-15T09:03:10;0.20;99.90
24412;DHT22;12544;46.760;15.942;2022-12-15T09:05:37;0.10;99.90
24412;DHT22;12544;46.760;15.942;2022-12-15T09:08:03;0.30;99.90
24412;DHT22;12544;46.760;15.942;2022-12-15T09:10:42;0.20;99.90
24412;DHT22;12544;46.760;15.942;2022-12-15T09:13:08;0.30;99.90
24412;DHT22;12544;46.760;15.942;2022-12-15T09:15:34;0.30;99.90
24412;DHT22;12544;46.760;15.942;2022-12-15T09:17:59;0.30;99.90
24412;DHT22;12544;46.760;15.942;2022-12-15T09:20:25;0.10;99.90
24412;DHT22;12544;46.760;15.942;2022-12-15T09:22:56;0.10;99.90
24412;DHT22;12544;46.760;15.942;2022-12-15T09:25:22;0.20;99.90
24412;DHT22;12544;46.760;15.942;2022-12-15T09:27:47;0.20;99.90
24412;DHT22;12544;46.760;15.942;2022-12-15T09:30:13;0.40;99.90
24412;DHT22;12544;46.760;15.942;2022-12-15T09:32:39;0.40;99.90
24412;DHT22;12544;46.760;15.942;2022-12-15T09:35:04;0.40;99.90
24412;DHT22;12544;46.760;15.942;2022-12-15T09:37:33;0.40;99.90
24412;DHT22;12544;46.760;15.942;2022-12-15T09:39:59;0.40;99.90
24412;DHT22;12544;46.760;15.942;2022-12-15T09:42:29;0.60;99.90
24412;DHT22;12544;46.760;15.942;2022-12-15T09:45:20;0.70;99.90
24412;DHT22;12544;46.760;15.942;2022-12-15T09:48:18;0.70;99.90
24412;DHT22;12544;46.760;15.942;2022-12-15T09:50:46;0.80;99.90
24412;DHT22;12544;46.760;15.942;2022-12-15T09:53:15;1.00;99.90
24412;DHT22;12544;46.760;15.942;2022-12-15T09:55:42;1.00;99.90
24412;DHT22;12544;46.760;15.942;2022-12-15T10:04:04;1.00;99.90
24412;DHT22;12544;46.760;15.942;2022-12-15T10:06:53;0.90;99.90
24412;DHT22;12544;46.760;15.942;2022-12-15T10:09:26;0.90;99.90
24412;DHT22;12544;46.760;15.942;2022-12-15T10:12:01;1.10;99.90
24412;DHT22;12544;46.760;15.942;2022-12-15T10:19:48;1.40;99.90
24412;DHT22;12544;46.760;15.942;2022-12-15T10:22:26;1.50;99.90
24412;DHT22;12544;46.760;15.942;2022-12-15T10:24:53;1.60;99.90
24412;DHT22;12544;46.760;15.942;2022-12-15T10:27:35;1.50;99.90
24412;DHT22;12544;46.760;15.942;2022-12-15T10:30:12;1.70;99.90
24412;DHT22;12544;46.760;15.942;2022-12-15T10:35:21;1.80;99.90
24412;DHT22;12544;46.760;15.942;2022-12-15T10:37:47;1.80;99.90
24412;DHT22;12544;46.760;15.942;2022-12-15T10:43:42;1.50;99.90
24412;DHT22;12544;46.760;15.942;2022-12-15T10:46:21;1.30;99.90
24412;DHT22;12544;46.760;15.942;2022-12-15T10:48:49;1.20;99.90
24412;DHT22;12544;46.760;15.942;2022-12-15T10:51:25;1.20;99.90
24412;DHT22;12544;46.760;15.942;2022-12-15T10:53:53;1.10;99.90
24412;DHT22;12544;46.760;15.942;2022-12-15T10:56:28;1.00;99.90
24412;DHT22;12544;46.760;15.942;2022-12-15T10:58:57;0.90;99.90
24412;DHT22;12544;46.760;15.942;2022-12-15T11:01:25;0.90;99.90
24412;DHT22;12544;46.760;15.942;2022-12-15T11:03:51;0.80;99.90
24412;DHT22;12544;46.760;15.942;2022-12-15T11:06:23;0.70;99.90
24412;DHT22;12544;46.760;15.942;2022-12-15T11:08:52;0.70;99.90
24412;DHT22;12544;46.760;15.942;2022-12-15T11:11:33;0.80;99.90
24412;DHT22;12544;46.760;15.942;2022-12-15T11:14:28;0.90;99.90
24412;DHT22;12544;46.760;15.942;2022-12-15T11:17:05;1.10;99.90
24412;DHT22;12544;46.760;15.942;2022-12-15T11:19:39;1.40;99.90
24412;DHT22;12544;46.760;15.942;2022-12-15T11:22:15;1.70;99.90
24412;DHT22;12544;46.760;15.942;2022-12-15T11:24:52;2.00;99.90
24412;DHT22;12544;46.760;15.942;2022-12-15T11:27:32;2.10;99.90
24412;DHT22;12544;46.760;15.942;2022-12-15T11:32:46;2.50;99.90
24412;DHT22;12544;46.760;15.942;2022-12-15T11:35:14;2.80;99.90
24412;DHT22;12544;46.760;15.942;2022-12-15T11:37:58;2.80;99.90
24412;DHT22;12544;46.760;15.942;2022-12-15T11:40:37;2.90;99.90
24412;DHT22;12544;46.760;15.942;2022-12-15T11:46:17;3.00;99.90
24412;DHT22;12544;46.760;15.942;2022-12-15T11:51:50;2.80;99.90
24412;DHT22;12544;46.760;15.942;2022-12-15T11:54:27;2.60;99.90
24412;DHT22;12544;46.760;15.942;2022-12-15T11:57:38;2.30;99.90
24412;DHT22;12544;46.760;15.942;2022-12-15T12:00:07;2.10;99.90
24412;DHT22;12544;46.760;15.942;2022-12-15T12:05:45;1.80;99.90
24412;DHT22;12544;46.760;15.942;2022-12-15T12:11:12;1.60;99.90
24412;DHT22;12544;46.760;15.942;2022-12-15T12:16:48;1.30;99.90
24412;DHT22;12544;46.760;15.942;2022-12-15T12:19:20;1.20;99.90
24412;DHT22;12544;46.760;15.942;2022-12-15T12:21:50;1.10;99.90
24412;DHT22;12544;46.760;15.942;2022-12-15T12:24:47;1.00;99.90
24412;DHT22;12544;46.760;15.942;2022-12-15T12:28:16;1.00;99.90
24412;DHT22;12544;46.760;15.942;2022-12-15T12:30:24;0.90;99.90
24412;DHT22;12544;46.760;15.942;2022-12-15T12:32:58;1.00;99.90
24412;DHT22;12544;46.760;15.942;2022-12-15T12:35:35;1.00;99.90
24412;DHT22;12544;46.760;15.942;2022-12-15T12:38:04;1.00;99.90
24412;DHT22;12544;46.760;15.942;2022-12-15T12:43:34;1.00;99.90
24412;DHT22;12544;46.760;15.942;2022-12-15T12:49:04;1.10;99.90
24412;DHT22;12544;46.760;15.942;2022-12-15T12:51:36;1.20;99.90
24412;DHT22;12544;46.760;15.942;2022-12-15T12:54:38;1.30;99.90
24412;DHT22;12544;46.760;15.942;2022-12-15T12:59:55;1.60;99.90
24412;DHT22;12544;46.760;15.942;2022-12-15T13:05:30;1.70;99.90
24412;DHT22;12544;46.760;15.942;2022-12-15T13:10:35;1.70;99.90
24412;DHT22;12544;46.760;15.942;2022-12-15T13:16:24;1.70;99.90
24412;DHT22;12544;46.760;15.942;2022-12-15T13:21:50;1.80;99.90
24412;DHT22;12544;46.760;15.942;2022-12-15T13:24:40;1.80;99.90
24412;DHT22;12544;46.760;15.942;2022-12-15T13:30:12;1.40;99.90
24412;DHT22;12544;46.760;15.942;2022-12-15T13:32:41;1.20;99.90
24412;DHT22;12544;46.760;15.942;2022-12-15T13:35:18;1.00;99.90
24412;DHT22;12544;46.760;15.942;2022-12-15T13:48:30;0.80;99.90
24412;DHT22;12544;46.760;15.942;2022-12-15T13:53:51;0.90;99.90
24412;DHT22;12544;46.760;15.942;2022-12-15T13:57:05;0.80;99.90
24412;DHT22;12544;46.760;15.942;2022-12-15T14:02:00;0.80;99.90
24412;DHT22;12544;46.760;15.942;2022-12-15T14:04:26;0.90;99.90
24412;DHT22;12544;46.760;15.942;2022-12-15T14:06:54;0.70;99.90
24412;DHT22;12544;46.760;15.942;2022-12-15T14:09:40;0.80;99.90
24412;DHT22;12544;46.760;15.942;2022-12-15T14:12:11;0.70;99.90
24412;DHT22;12544;46.760;15.942;2022-12-15T14:14:44;0.70;99.90
24412;DHT22;12544;46.760;15.942;2022-12-15T14:17:15;0.70;99.90
24412;DHT22;12544;46.760;15.942;2022-12-15T14:19:46;0.70;99.90
24412;DHT22;12544;46.760;15.942;2022-12-15T14:22:28;0.70;99.90
24412;DHT22;12544;46.760;15.942;2022-12-15T14:25:07;0.60;99.90
24412;DHT22;12544;46.760;15.942;2022-12-15T14:27:37;0.70;99.90
24412;DHT22;12544;46.760;15.942;2022-12-15T14:32:49;0.70;99.90
24412;DHT22;12544;46.760;15.942;2022-12-15T14:35:50;0.70;99.90
24412;DHT22;12544;46.760;15.942;2022-12-15T14:41:05;0.70;99.90
24412;DHT22;12544;46.760;15.942;2022-12-15T14:43:35;0.60;99.90
24412;DHT22;12544;46.760;15.942;2022-12-15T14:46:15;0.80;99.90
24412;DHT22;12544;46.760;15.942;2022-12-15T14:49:38;0.80;99.90
24412;DHT22;12544;46.760;15.942;2022-12-15T14:51:43;0.80;99.90
24412;DHT22;12544;46.760;15.942;2022-12-15T14:57:29;0.80;99.90
24412;DHT22;12544;46.760;15.942;2022-12-15T15:00:34;0.80;99.90
24412;DHT22;12544;46.760;15.942;2022-12-15T15:08:50;0.90;99.90
24412;DHT22;12544;46.760;15.942;2022-12-15T15:11:36;0.90;99.90
24412;DHT22;12544;46.760;15.942;2022-12-15T15:14:07;0.90;99.90
24412;DHT22;12544;46.760;15.942;2022-12-15T15:16:35;0.90;99.90
24412;DHT22;12544;46.760;15.942;2022-12-15T15:19:01;0.90;99.90
24412;DHT22;12544;46.760;15.942;2022-12-15T15:21:29;0.80;99.90
24412;DHT22;12544;46.760;15.942;2022-12-15T15:26:38;0.70;99.90
24412;DHT22;12544;46.760;15.942;2022-12-15T15:29:39;0.60;99.90
24412;DHT22;12544;46.760;15.942;2022-12-15T15:32:17;0.70;99.90
24412;DHT22;12544;46.760;15.942;2022-12-15T15:34:45;0.70;99.90
24412;DHT22;12544;46.760;15.942;2022-12-15T15:37:17;0.80;99.90
24412;DHT22;12544;46.760;15.942;2022-12-15T15:39:43;0.70;99.90
24412;DHT22;12544;46.760;15.942;2022-12-15T15:42:11;0.80;99.90
24412;DHT22;12544;46.760;15.942;2022-12-15T15:44:40;0.90;99.90
24412;DHT22;12544;46.760;15.942;2022-12-15T15:49:42;0.70;99.90
24412;DHT22;12544;46.760;15.942;2022-12-15T15:52:11;0.70;99.90
24412;DHT22;12544;46.760;15.942;2022-12-15T15:54:37;0.70;99.90
24412;DHT22;12544;46.760;15.942;2022-12-15T15:57:03;0.80;99.90
24412;DHT22;12544;46.760;15.942;2022-12-15T15:59:29;0.60;99.90
24412;DHT22;12544;46.760;15.942;2022-12-15T16:02:32;0.70;99.90
24412;DHT22;12544;46.760;15.942;2022-12-15T16:04:58;0.70;99.90
24412;DHT22;12544;46.760;15.942;2022-12-15T16:07:26;0.80;99.90
24412;DHT22;12544;46.760;15.942;2022-12-15T16:09:53;0.90;99.90
24412;DHT22;12544;46.760;15.942;2022-12-15T16:12:28;0.90;99.90
24412;DHT22;12544;46.760;15.942;2022-12-15T16:15:01;0.80;99.90
24412;DHT22;12544;46.760;15.942;2022-12-15T16:17:27;0.90;99.90
24412;DHT22;12544;46.760;15.942;2022-12-15T16:19:52;1.00;99.90
24412;DHT22;12544;46.760;15.942;2022-12-15T16:22:19;1.10;99.90
24412;DHT22;12544;46.760;15.942;2022-12-15T16:24:45;0.80;99.90
24412;DHT22;12544;46.760;15.942;2022-12-15T16:27:12;0.80;99.90
24412;DHT22;12544;46.760;15.942;2022-12-15T16:29:39;0.80;99.90
24412;DHT22;12544;46.760;15.942;2022-12-15T16:32:15;0.70;99.90
24412;DHT22;12544;46.760;15.942;2022-12-15T16:34:40;0.70;99.90
24412;DHT22;12544;46.760;15.942;2022-12-15T16:37:21;0.70;99.90
24412;DHT22;12544;46.760;15.942;2022-12-15T16:39:48;0.70;99.90
24412;DHT22;12544;46.760;15.942;2022-12-15T16:42:13;0.70;99.90
24412;DHT22;12544;46.760;15.942;2022-12-15T16:44:39;0.70;99.90
24412;DHT22;12544;46.760;15.942;2022-12-15T16:47:05;0.80;99.90
24412;DHT22;12544;46.760;15.942;2022-12-15T16:49:30;0.70;99.90
24412;DHT22;12544;46.760;15.942;2022-12-15T16:51:56;0.70;99.90
24412;DHT22;12544;46.760;15.942;2022-12-15T16:54:25;1.00;99.90
24412;DHT22;12544;46.760;15.942;2022-12-15T16:56:52;0.90;99.90
24412;DHT22;12544;46.760;15.942;2022-12-15T16:59:20;0.80;99.90
24412;DHT22;12544;46.760;15.942;2022-12-15T17:05:04;0.90;99.90
24412;DHT22;12544;46.760;15.942;2022-12-15T17:07:30;0.90;99.90
24412;DHT22;12544;46.760;15.942;2022-12-15T17:09:56;0.90;99.90
24412;DHT22;12544;46.760;15.942;2022-12-15T17:12:22;0.90;99.90
24412;DHT22;12544;46.760;15.942;2022-12-15T17:14:48;1.00;99.90
24412;DHT22;12544;46.760;15.942;2022-12-15T17:17:16;0.90;99.90
24412;DHT22;12544;46.760;15.942;2022-12-15T17:19:42;0.80;99.90
24412;DHT22;12544;46.760;15.942;2022-12-15T17:22:11;0.80;99.90
24412;DHT22;12544;46.760;15.942;2022-12-15T17:24:40;0.70;99.90
24412;DHT22;12544;46.760;15.942;2022-12-15T17:27:06;0.60;99.90
24412;DHT22;12544;46.760;15.942;2022-12-15T17:29:32;0.60;99.90
24412;DHT22;12544;46.760;15.942;2022-12-15T17:31:58;0.60;99.90
24412;DHT22;12544;46.760;15.942;2022-12-15T17:34:30;0.80;99.90
24412;DHT22;12544;46.760;15.942;2022-12-15T17:36:58;0.60;99.90
24412;DHT22;12544;46.760;15.942;2022-12-15T17:39:24;0.50;99.90
24412;DHT22;12544;46.760;15.942;2022-12-15T17:41:50;0.50;99.90
24412;DHT22;12544;46.760;15.942;2022-12-15T17:44:25;0.50;99.90
24412;DHT22;12544;46.760;15.942;2022-12-15T17:47:01;0.50;99.90
24412;DHT22;12544;46.760;15.942;2022-12-15T17:49:26;0.50;99.90
24412;DHT22;12544;46.760;15.942;2022-12-15T17:51:52;0.70;99.90
24412;DHT22;12544;46.760;15.942;2022-12-15T18:00:53;0.30;99.90
24412;DHT22;12544;46.760;15.942;2022-12-15T18:03:20;0.40;99.90
24412;DHT22;12544;46.760;15.942;2022-12-15T18:05:48;0.50;99.90
24412;DHT22;12544;46.760;15.942;2022-12-15T18:08:18;0.30;99.90
24412;DHT22;12544;46.760;15.942;2022-12-15T18:10:45;0.60;99.90
24412;DHT22;12544;46.760;15.942;2022-12-15T18:13:32;0.40;99.90